createdAt,value
2022-11-02T00:01:33.988Z,15.36
2022-11-02T00:06:30.844Z,15.19
2022-11-02T00:11:27.751Z,15.46
2022-11-02T00:16:25.785Z,15.28
2022-11-02T00:21:25.003Z,15.56
2022-11-02T00:26:22.079Z,15.14
2022-11-02T00:31:18.945Z,15.40
2022-11-02T00:36:16.969Z,15.49
2022-11-02T00:41:14.851Z,15.44
2022-11-02T00:46:11.901Z,15.50
2022-11-02T00:51:08.899Z,15.35
2022-11-02T00:56:07.954Z,15.17
2022-11-02T01:01:05.874Z,15.37
2022-11-02T01:06:08.404Z,15.26
2022-11-02T01:11:14.262Z,15.09
2022-11-02T01:16:12.586Z,15.04
2022-11-02T01:21:09.980Z,15.06
2022-11-02T01:26:08.738Z,14.84
2022-11-02T01:31:07.436Z,14.70
2022-11-02T01:36:06.092Z,14.86
2022-11-02T01:41:02.886Z,14.80
2022-11-02T01:46:05.734Z,14.74
2022-11-02T01:51:07.875Z,14.66
2022-11-02T01:56:05.924Z,14.36
2022-11-02T02:01:03.480Z,14.53
2022-11-02T02:06:06.677Z,14.39
2022-11-02T02:11:03.902Z,14.16
2022-11-02T02:16:11.613Z,14.12
2022-11-02T02:21:25.884Z,14.30
2022-11-02T02:27:05.075Z,14.23
2022-11-02T02:32:08.669Z,14.06
2022-11-02T02:37:14.069Z,14.16
2022-11-02T02:42:18.706Z,13.70
2022-11-02T02:47:21.192Z,14.13
2022-11-02T02:52:20.452Z,13.70
2022-11-02T02:57:20.291Z,13.80
2022-11-02T03:02:24.157Z,13.46
2022-11-02T03:07:27.219Z,13.99
2022-11-02T03:12:31.768Z,14.10
2022-11-02T03:17:33.441Z,13.73
2022-11-02T03:22:39.148Z,14.09
2022-11-02T03:27:43.985Z,14.07
2022-11-02T03:32:50.225Z,14.06
2022-11-02T03:37:52.760Z,14.21
2022-11-02T03:42:52.493Z,13.98
2022-11-02T03:47:53.929Z,14.32
2022-11-02T03:52:58.759Z,14.12
2022-11-02T03:57:58.941Z,14.34
2022-11-02T04:03:03.476Z,14.35
2022-11-02T04:08:23.747Z,14.36
2022-11-02T04:13:42.821Z,14.34
2022-11-02T04:18:58.476Z,14.27
2022-11-02T04:24:14.762Z,14.27
2022-11-02T04:29:12.085Z,14.24
2022-11-02T04:34:10.071Z,14.33
2022-11-02T04:39:07.808Z,14.34
2022-11-02T04:44:05.580Z,14.32
2022-11-02T04:49:03.824Z,14.28
2022-11-02T04:54:03.710Z,14.19
2022-11-02T04:59:02.251Z,14.00
2022-11-02T05:04:02.544Z,13.84
2022-11-02T05:09:03.142Z,14.04
2022-11-02T05:14:01.297Z,14.07
2022-11-02T05:18:59.492Z,14.05
2022-11-02T05:24:00.219Z,14.21
2022-11-02T05:28:59.066Z,14.49
2022-11-02T05:33:56.555Z,14.38
2022-11-02T05:38:54.184Z,14.51
2022-11-02T05:43:51.553Z,14.36
2022-11-02T05:48:51.296Z,14.40
2022-11-02T05:53:48.277Z,14.89
2022-11-02T05:58:45.325Z,14.98
2022-11-02T06:03:42.344Z,14.79
2022-11-02T06:08:40.687Z,15.02
2022-11-02T06:13:38.694Z,15.04
2022-11-02T06:18:36.551Z,15.26
2022-11-02T06:23:33.992Z,15.35
2022-11-02T06:28:32.003Z,15.60
2022-11-02T06:33:29.448Z,15.74
2022-11-02T06:38:26.459Z,15.67
2022-11-02T06:43:23.957Z,16.08
2022-11-02T06:48:21.795Z,16.02
2022-11-02T06:53:18.725Z,15.84
2022-11-02T06:58:15.601Z,16.62
2022-11-02T07:03:12.654Z,16.49
2022-11-02T07:08:10.237Z,16.91
2022-11-02T07:13:08.191Z,16.47
2022-11-02T07:18:06.182Z,16.90
2022-11-02T07:23:04.848Z,17.22
2022-11-02T07:28:04.066Z,17.30
2022-11-02T07:33:01.603Z,17.60
2022-11-02T07:38:00.544Z,17.60
2022-11-02T07:42:58.494Z,17.52
2022-11-02T07:48:06.559Z,17.78
2022-11-02T07:53:07.114Z,18.02
2022-11-02T07:58:07.388Z,17.89
2022-11-02T08:03:06.338Z,18.21
2022-11-02T08:08:06.563Z,18.25
2022-11-02T08:13:04.415Z,17.91
2022-11-02T08:18:03.430Z,18.50
2022-11-02T08:23:00.904Z,18.58
2022-11-02T08:27:59.599Z,18.71
2022-11-02T08:33:03.389Z,18.77
2022-11-02T08:38:00.287Z,18.94
2022-11-02T08:42:58.484Z,19.02
2022-11-02T08:47:55.706Z,19.23
2022-11-02T08:52:53.080Z,19.29
2022-11-02T08:57:52.060Z,19.44
2022-11-02T09:03:00.975Z,19.32
2022-11-02T09:07:59.778Z,19.68
2022-11-02T09:12:56.614Z,19.65
2022-11-02T09:17:56.392Z,19.86
2022-11-02T09:22:53.993Z,20.07
2022-11-02T09:27:55.562Z,19.79
2022-11-02T09:32:56.566Z,20.22
2022-11-02T09:37:54.430Z,20.04
2022-11-02T09:43:04.738Z,20.24
2022-11-02T09:48:17.987Z,20.39
2022-11-02T09:53:22.147Z,20.25
2022-11-02T09:58:27.186Z,20.56
2022-11-02T10:03:35.612Z,20.09
2022-11-02T10:08:41.805Z,20.69
2022-11-02T10:13:48.219Z,20.89
2022-11-02T10:18:49.893Z,20.94
2022-11-02T10:23:51.977Z,21.07
2022-11-02T10:28:52.845Z,21.17
2022-11-02T10:33:52.835Z,21.13
2022-11-02T10:39:05.223Z,21.42
2022-11-02T10:44:16.203Z,21.54
2022-11-02T10:49:26.753Z,21.76
2022-11-02T10:54:33.256Z,22.07
2022-11-02T10:59:31.393Z,22.81
2022-11-02T11:04:29.732Z,23.21
2022-11-02T11:09:30.747Z,23.45
2022-11-02T11:19:50.787Z,23.94
2022-11-02T11:24:48.407Z,24.14
2022-11-02T11:30:03.266Z,24.51
2022-11-02T11:35:03.410Z,24.64
2022-11-02T11:40:03.838Z,24.60
2022-11-02T11:45:04.925Z,24.55
2022-11-02T11:50:15.533Z,24.71
2022-11-02T11:55:24.943Z,24.85
2022-11-02T12:00:30.045Z,25.10
2022-11-02T12:05:26.951Z,25.25
2022-11-02T12:10:36.839Z,24.84
2022-11-02T12:15:46.918Z,25.37
2022-11-02T12:21:04.437Z,25.22
2022-11-02T12:26:20.373Z,25.13
2022-11-02T12:31:33.225Z,25.26
2022-11-02T12:37:10.302Z,25.34
2022-11-02T12:42:18.501Z,24.96
2022-11-02T12:47:29.794Z,25.08
2022-11-02T12:52:39.429Z,25.36
2022-11-02T12:57:38.725Z,25.34
2022-11-02T13:02:47.832Z,25.29
2022-11-02T13:07:48.869Z,25.16
2022-11-02T13:12:49.801Z,25.00
2022-11-02T13:17:51.004Z,24.40
2022-11-02T13:22:54.146Z,24.71
2022-11-02T13:28:05.248Z,24.00
2022-11-02T13:33:11.375Z,23.86
2022-11-02T13:38:29.491Z,23.94
2022-11-02T13:44:02.842Z,24.03
2022-11-02T13:49:05.939Z,23.88
2022-11-02T13:54:13.254Z,23.74
2022-11-02T13:59:22.564Z,23.58
2022-11-02T14:04:21.909Z,23.19
2022-11-02T14:09:31.784Z,23.03
2022-11-02T14:14:37.602Z,23.27
2022-11-02T14:19:53.289Z,22.91
2022-11-02T14:24:55.500Z,23.12
2022-11-02T14:29:56.342Z,23.02
2022-11-02T14:35:08.625Z,22.74
2022-11-02T14:40:14.018Z,22.49
2022-11-02T14:45:24.650Z,22.60
2022-11-02T14:50:22.738Z,22.33
2022-11-02T14:55:23.823Z,22.14
2022-11-02T15:00:23.580Z,22.09
2022-11-02T15:05:26.419Z,21.90
2022-11-02T15:10:45.235Z,21.46
2022-11-02T15:15:44.062Z,21.49
2022-11-02T15:20:46.168Z,21.08
2022-11-02T15:25:49.126Z,20.91
2022-11-02T15:30:54.544Z,20.62
2022-11-02T15:35:54.518Z,20.57
2022-11-02T15:41:00.897Z,20.72
2022-11-02T15:46:09.521Z,20.22
2022-11-02T15:51:16.959Z,20.34
2022-11-02T15:56:32.198Z,20.29
2022-11-02T16:01:29.901Z,19.84
2022-11-02T16:06:30.115Z,19.88
2022-11-02T16:11:28.182Z,19.64
2022-11-02T16:16:25.458Z,19.86
2022-11-02T16:21:24.094Z,19.76
2022-11-02T16:26:24.548Z,19.52
2022-11-02T16:31:24.457Z,19.56
2022-11-02T16:36:23.992Z,19.36
2022-11-02T16:41:22.559Z,19.41
2022-11-02T16:46:30.794Z,18.82
2022-11-02T16:51:31.322Z,19.29
2022-11-02T16:56:31.677Z,18.93
2022-11-02T17:01:34.567Z,19.03
2022-11-02T17:06:43.174Z,18.75
2022-11-02T17:11:43.840Z,19.04
2022-11-02T17:16:59.336Z,18.38
2022-11-02T17:22:10.605Z,18.54
2022-11-02T17:27:24.327Z,18.67
2022-11-02T17:32:23.238Z,18.79
2022-11-02T17:37:25.964Z,18.46
2022-11-02T17:42:44.220Z,18.76
2022-11-02T17:47:41.328Z,18.72
2022-11-02T17:52:42.100Z,18.40
2022-11-02T17:57:50.974Z,18.45
2022-11-02T18:02:53.561Z,18.30
2022-11-02T18:07:52.834Z,18.48
2022-11-02T18:12:51.812Z,17.97
2022-11-02T18:17:48.962Z,17.92
2022-11-02T18:22:46.305Z,18.51
2022-11-02T18:27:43.883Z,18.10
2022-11-02T18:32:47.909Z,18.09
2022-11-02T18:37:48.306Z,18.40
2022-11-02T18:42:45.817Z,18.28
2022-11-02T18:47:46.466Z,18.01
2022-11-02T18:52:48.344Z,17.95
2022-11-02T18:57:45.617Z,18.30
2022-11-02T19:02:48.989Z,17.74
2022-11-02T19:08:04.780Z,18.58
2022-11-02T19:13:03.249Z,18.35
2022-11-02T19:18:01.446Z,18.47
2022-11-02T19:22:58.501Z,18.68
2022-11-02T19:27:59.221Z,18.63
2022-11-02T19:33:02.156Z,18.57
2022-11-02T19:37:59.234Z,18.34
2022-11-02T19:42:56.642Z,18.73
2022-11-02T19:47:55.924Z,18.14
2022-11-02T19:52:56.829Z,18.70
2022-11-02T19:57:58.913Z,18.26
2022-11-02T20:02:56.069Z,18.65
2022-11-02T20:07:53.170Z,18.14
2022-11-02T20:12:51.398Z,18.62
2022-11-02T20:18:13.733Z,18.13
2022-11-02T20:23:15.587Z,18.27
2022-11-02T20:28:13.673Z,18.08
2022-11-02T20:33:10.874Z,18.47
2022-11-02T20:38:08.406Z,18.30
2022-11-02T20:43:06.971Z,18.49
2022-11-02T20:48:05.773Z,18.50
2022-11-02T20:53:03.458Z,18.45
2022-11-02T20:58:00.823Z,18.29
2022-11-02T21:03:02.625Z,18.35
2022-11-02T21:08:00.628Z,18.63
2022-11-02T21:13:15.571Z,18.36
2022-11-02T21:18:14.184Z,18.50
2022-11-02T21:23:12.277Z,18.26
2022-11-02T21:28:09.236Z,18.37
2022-11-02T21:33:07.699Z,18.31
2022-11-02T21:38:07.834Z,18.00
2022-11-02T21:43:06.090Z,18.39
2022-11-02T21:48:03.576Z,18.33
2022-11-02T21:53:00.594Z,18.37
2022-11-02T21:57:57.534Z,18.37
2022-11-02T22:02:55.421Z,18.28
2022-11-02T22:08:08.021Z,17.84
2022-11-02T22:13:22.648Z,17.91
2022-11-02T22:18:20.477Z,18.10
2022-11-02T22:23:17.512Z,17.69
2022-11-02T22:28:14.535Z,17.34
2022-11-02T22:33:11.540Z,16.88
2022-11-02T22:38:27.548Z,16.97
2022-11-02T22:43:24.611Z,16.64
2022-11-02T22:48:21.417Z,16.43
2022-11-02T22:53:19.047Z,16.30
2022-11-02T22:58:16.386Z,15.93
2022-11-02T23:03:13.385Z,16.42
2022-11-02T23:08:10.484Z,16.18
2022-11-02T23:13:08.453Z,16.43
2022-11-02T23:18:05.754Z,16.82
2022-11-02T23:23:20.482Z,16.87
2022-11-02T23:28:35.921Z,16.88
2022-11-02T23:33:35.589Z,16.76
2022-11-02T23:38:47.005Z,16.75
2022-11-02T23:43:45.023Z,16.70
2022-11-02T23:48:42.532Z,17.07
2022-11-02T23:53:57.775Z,16.91
2022-11-02T23:59:05.961Z,17.23
